createdAt,value
2017-08-02T00:01:21.393Z,0
2017-08-02T00:02:43.323Z,0
2017-08-02T00:04:05.481Z,0
2017-08-02T00:05:27.686Z,0
2017-08-02T00:06:49.794Z,0
2017-08-02T00:08:12.029Z,0
2017-08-02T00:09:34.512Z,0
2017-08-02T00:10:56.094Z,0
2017-08-02T00:12:18.182Z,0
2017-08-02T00:13:40.093Z,0
2017-08-02T00:15:01.623Z,0
2017-08-02T00:16:23.462Z,0
2017-08-02T00:17:45.925Z,0
2017-08-02T00:19:07.752Z,0
2017-08-02T00:20:29.603Z,0
2017-08-02T00:21:52.093Z,0
2017-08-02T00:23:14.293Z,0
2017-08-02T00:24:36.135Z,0
2017-08-02T00:25:57.690Z,0
2017-08-02T00:27:20.222Z,0
2017-08-02T00:28:42.642Z,0
2017-08-02T00:30:03.842Z,0
2017-08-02T00:31:26.052Z,0
2017-08-02T00:32:48.227Z,0
2017-08-02T00:34:11.092Z,0
2017-08-02T00:35:33.343Z,0
2017-08-02T00:36:55.571Z,0
2017-08-02T00:38:18.040Z,0
2017-08-02T00:39:40.196Z,0
2017-08-02T00:41:02.673Z,0
2017-08-02T00:42:24.975Z,0
2017-08-02T00:43:46.908Z,0
2017-08-02T00:45:09.766Z,0
2017-08-02T00:46:31.922Z,0
2017-08-02T00:47:54.391Z,0
2017-08-02T00:49:16.289Z,0
2017-08-02T00:50:38.691Z,0
2017-08-02T00:52:00.528Z,0
2017-08-02T00:53:22.381Z,0
2017-08-02T00:54:43.912Z,0
2017-08-02T00:56:06.013Z,0
2017-08-02T00:57:28.194Z,0
2017-08-02T00:58:50.038Z,0
2017-08-02T01:00:12.202Z,0
2017-08-02T01:01:34.719Z,0
2017-08-02T01:02:56.593Z,0
2017-08-02T01:04:18.894Z,0
2017-08-02T01:05:41.044Z,0
2017-08-02T01:07:03.154Z,0
2017-08-02T01:08:24.981Z,0
2017-08-02T01:09:46.896Z,0
2017-08-02T01:11:08.752Z,0
2017-08-02T01:12:31.260Z,0
2017-08-02T01:13:53.732Z,0
2017-08-02T01:15:15.872Z,0
2017-08-02T01:16:38.038Z,0
2017-08-02T01:18:00.291Z,0
2017-08-02T01:19:21.832Z,0
2017-08-02T01:20:44.296Z,0
2017-08-02T01:22:06.235Z,0
2017-08-02T01:23:28.392Z,0
2017-08-02T01:24:50.223Z,0
2017-08-02T01:26:12.436Z,0
2017-08-02T01:27:34.282Z,0
2017-08-02T01:28:56.612Z,0
2017-08-02T01:30:18.802Z,0
2017-08-02T01:31:41.021Z,0
2017-08-02T01:33:02.612Z,0
2017-08-02T01:34:24.743Z,0
2017-08-02T01:35:47.311Z,0
2017-08-02T01:37:09.192Z,0
2017-08-02T01:38:31.144Z,0
2017-08-02T01:39:53.964Z,0
2017-08-02T01:41:15.832Z,0
2017-08-02T01:42:38.021Z,0
2017-08-02T01:44:00.191Z,0
2017-08-02T01:45:22.421Z,0
2017-08-02T01:46:43.941Z,0
2017-08-02T01:48:05.769Z,0
2017-08-02T01:49:27.652Z,0
2017-08-02T01:50:50.061Z,0
2017-08-02T01:52:11.895Z,0
2017-08-02T01:53:33.752Z,0
2017-08-02T01:54:55.919Z,0
2017-08-02T01:56:18.049Z,0
2017-08-02T01:57:39.582Z,0
2017-08-02T01:59:00.792Z,0
2017-08-02T02:00:22.309Z,0
2017-08-02T02:01:44.431Z,0
2017-08-02T02:03:06.266Z,0
2017-08-02T02:04:28.466Z,0
2017-08-02T02:05:50.313Z,0
2017-08-02T02:07:12.532Z,0
2017-08-02T02:08:35.148Z,0
2017-08-02T02:09:56.970Z,0
2017-08-02T02:11:19.385Z,0
2017-08-02T02:12:41.491Z,0
2017-08-02T02:14:03.147Z,0
2017-08-02T02:15:24.995Z,0
2017-08-02T02:16:46.832Z,0
2017-08-02T02:18:08.932Z,0
2017-08-02T02:19:30.813Z,0
2017-08-02T02:20:53.113Z,0
2017-08-02T02:22:14.960Z,0
2017-08-02T02:23:37.238Z,0
2017-08-02T02:24:58.887Z,0
2017-08-02T02:26:20.150Z,0
2017-08-02T02:27:41.990Z,0
2017-08-02T02:29:04.073Z,0
2017-08-02T02:30:25.600Z,0
2017-08-02T02:31:47.472Z,0
2017-08-02T02:33:09.620Z,0
2017-08-02T02:34:31.491Z,0
2017-08-02T02:35:53.314Z,0
2017-08-02T02:37:15.271Z,0
2017-08-02T02:38:37.550Z,0
2017-08-02T02:40:00.009Z,0
2017-08-02T02:41:22.158Z,0
2017-08-02T02:42:43.801Z,0
2017-08-02T02:44:05.941Z,0
2017-08-02T02:45:28.710Z,0
2017-08-02T02:46:50.605Z,0
2017-08-02T02:48:11.810Z,0
2017-08-02T02:49:33.680Z,0
2017-08-02T02:50:55.818Z,0
2017-08-02T02:52:18.030Z,0
2017-08-02T02:53:39.879Z,0
2017-08-02T02:55:02.045Z,0
2017-08-02T02:56:24.450Z,0
2017-08-02T02:57:45.665Z,0
2017-08-02T02:59:07.509Z,0
2017-08-02T03:00:29.040Z,0
2017-08-02T03:01:51.618Z,0
2017-08-02T03:03:14.244Z,0
2017-08-02T03:04:36.730Z,0
2017-08-02T03:05:58.250Z,4
2017-08-02T03:07:20.845Z,4
2017-08-02T03:08:42.685Z,0
2017-08-02T03:10:05.188Z,4
2017-08-02T03:11:27.020Z,4
2017-08-02T03:12:48.578Z,4
2017-08-02T03:14:10.780Z,4
2017-08-02T03:15:32.290Z,8
2017-08-02T03:16:54.800Z,12
2017-08-02T03:18:17.210Z,16
2017-08-02T03:19:38.730Z,20
2017-08-02T03:21:00.269Z,20
2017-08-02T03:22:22.468Z,28
2017-08-02T03:23:44.233Z,32
2017-08-02T03:25:06.401Z,36
2017-08-02T03:26:28.642Z,40
2017-08-02T03:27:51.127Z,44
2017-08-02T03:29:13.012Z,48
2017-08-02T03:30:35.189Z,56
2017-08-02T03:31:56.757Z,60
2017-08-02T03:33:18.752Z,68
2017-08-02T03:34:41.216Z,76
2017-08-02T03:36:03.047Z,84
2017-08-02T03:37:24.990Z,92
2017-08-02T03:38:46.516Z,104
2017-08-02T03:40:08.749Z,112
2017-08-02T03:41:30.256Z,124
2017-08-02T03:42:52.768Z,136
2017-08-02T03:44:15.242Z,148
2017-08-02T03:45:38.120Z,164
2017-08-02T03:47:00.279Z,180
2017-08-02T03:48:22.130Z,196
2017-08-02T03:49:44.309Z,220
2017-08-02T03:51:07.230Z,248
2017-08-02T03:52:29.381Z,276
2017-08-02T03:53:51.541Z,304
2017-08-02T03:55:13.733Z,332
2017-08-02T03:56:35.511Z,364
2017-08-02T03:57:57.656Z,400
2017-08-02T03:59:19.740Z,440
2017-08-02T04:00:42.210Z,480
2017-08-02T04:02:04.727Z,528
2017-08-02T04:03:26.551Z,568
2017-08-02T04:04:48.399Z,604
2017-08-02T04:06:10.016Z,640
2017-08-02T04:07:32.159Z,692
2017-08-02T04:08:53.691Z,788
2017-08-02T04:10:15.892Z,888
2017-08-02T04:11:37.730Z,976
2017-08-02T04:12:59.540Z,1024
2017-08-02T04:14:21.223Z,1088
2017-08-02T04:15:43.388Z,1188
2017-08-02T04:17:05.659Z,1284
2017-08-02T04:18:28.050Z,1356
2017-08-02T04:19:50.199Z,1428
2017-08-02T04:21:11.724Z,1508
2017-08-02T04:22:33.921Z,1600
2017-08-02T04:23:55.755Z,1748
2017-08-02T04:25:17.584Z,1936
2017-08-02T04:26:39.430Z,2100
2017-08-02T04:28:01.317Z,2252
2017-08-02T04:29:24.158Z,2332
2017-08-02T04:30:45.695Z,2412
2017-08-02T04:32:07.239Z,2420
2017-08-02T04:33:29.409Z,2504
2017-08-02T04:34:51.341Z,2600
2017-08-02T04:36:12.858Z,2688
2017-08-02T04:37:35.319Z,2724
2017-08-02T04:38:57.897Z,2716
2017-08-02T04:40:20.050Z,2724
2017-08-02T04:41:41.561Z,2712
2017-08-02T04:43:03.409Z,2656
2017-08-02T04:44:25.268Z,2776
2017-08-02T04:45:47.420Z,2912
2017-08-02T04:47:09.581Z,3028
2017-08-02T04:48:31.411Z,3120
2017-08-02T04:49:53.238Z,3180
2017-08-02T04:51:15.387Z,3164
2017-08-02T04:52:37.229Z,3080
2017-08-02T04:53:59.109Z,3048
2017-08-02T04:55:20.648Z,3100
2017-08-02T04:56:43.440Z,3264
2017-08-02T04:58:05.278Z,3604
2017-08-02T04:59:27.301Z,3872
2017-08-02T05:00:49.460Z,3780
2017-08-02T05:02:11.422Z,3404
2017-08-02T05:03:32.822Z,3184
2017-08-02T05:04:54.649Z,3164
2017-08-02T05:06:16.554Z,3356
2017-08-02T05:07:38.818Z,3424
2017-08-02T05:09:00.336Z,3328
2017-08-02T05:10:22.181Z,3324
2017-08-02T05:11:44.651Z,3380
2017-08-02T05:13:06.111Z,3392
2017-08-02T05:14:27.311Z,3432
2017-08-02T05:15:49.480Z,3468
2017-08-02T05:17:11.352Z,3556
2017-08-02T05:18:33.490Z,3680
2017-08-02T05:19:55.326Z,3844
2017-08-02T05:21:17.160Z,4084
2017-08-02T05:22:39.324Z,4392
2017-08-02T05:24:01.442Z,4592
2017-08-02T05:25:23.650Z,4772
2017-08-02T05:26:44.861Z,4948
2017-08-02T05:28:06.725Z,5160
2017-08-02T05:29:29.151Z,5340
2017-08-02T05:30:51.699Z,5580
2017-08-02T05:32:13.560Z,5808
2017-08-02T05:33:36.183Z,6244
2017-08-02T05:34:58.970Z,7012
2017-08-02T05:36:20.807Z,7868
2017-08-02T05:37:42.321Z,8552
2017-08-02T05:39:04.504Z,9064
2017-08-02T05:40:26.280Z,8996
2017-08-02T05:41:48.156Z,8176
2017-08-02T05:43:10.361Z,7664
2017-08-02T05:44:32.691Z,7888
2017-08-02T05:45:55.145Z,6936
2017-08-02T05:47:17.071Z,7104
2017-08-02T05:48:39.300Z,8200
2017-08-02T05:50:01.199Z,8724
2017-08-02T05:51:23.668Z,9264
2017-08-02T05:52:44.953Z,9792
2017-08-02T05:54:06.530Z,10152
2017-08-02T05:55:29.147Z,10580
2017-08-02T05:56:50.978Z,10876
2017-08-02T05:58:12.804Z,10908
2017-08-02T05:59:34.810Z,11548
2017-08-02T06:00:56.759Z,12372
2017-08-02T06:02:18.677Z,12828
2017-08-02T06:03:40.527Z,13392
2017-08-02T06:05:02.792Z,14580
2017-08-02T06:06:25.271Z,16416
2017-08-02T06:07:47.426Z,17376
2017-08-02T06:09:09.707Z,17472
2017-08-02T06:10:31.990Z,15520
2017-08-02T06:11:53.873Z,14408
2017-08-02T06:13:16.328Z,14080
2017-08-02T06:14:38.808Z,13628
2017-08-02T06:16:00.667Z,13136
2017-08-02T06:17:22.900Z,13052
2017-08-02T06:18:45.372Z,12812
2017-08-02T06:20:07.304Z,11968
2017-08-02T06:21:29.807Z,11448
2017-08-02T06:22:51.728Z,11664
2017-08-02T06:24:13.671Z,12600
2017-08-02T06:25:35.923Z,13636
2017-08-02T06:26:57.466Z,14612
2017-08-02T06:28:19.324Z,14928
2017-08-02T06:29:41.771Z,15136
2017-08-02T06:31:03.928Z,30624
2017-08-02T06:32:25.876Z,15384
2017-08-02T06:33:47.794Z,14760
2017-08-02T06:35:10.298Z,16192
2017-08-02T06:36:32.782Z,17792
2017-08-02T06:37:54.295Z,18624
2017-08-02T06:39:16.159Z,21280
2017-08-02T06:40:38.044Z,18912
2017-08-02T06:41:59.628Z,18400
2017-08-02T06:43:21.871Z,23648
2017-08-02T06:44:44.387Z,37376
2017-08-02T06:46:06.541Z,21824
2017-08-02T06:47:29.030Z,22048
2017-08-02T06:48:50.874Z,22624
2017-08-02T06:50:13.377Z,26720
2017-08-02T06:51:35.852Z,27936
2017-08-02T06:52:57.755Z,25312
2017-08-02T06:54:20.290Z,27904
2017-08-02T06:55:42.446Z,21792
2017-08-02T06:57:05.091Z,24288
2017-08-02T06:58:26.951Z,26368
2017-08-02T06:59:49.439Z,49440
2017-08-02T07:01:11.615Z,43168
2017-08-02T07:02:33.732Z,45152
2017-08-02T07:03:55.295Z,40000
2017-08-02T07:05:16.849Z,54560
2017-08-02T07:06:39.008Z,37856
2017-08-02T07:08:00.841Z,32576
2017-08-02T07:09:22.733Z,36064
2017-08-02T07:10:44.974Z,28832
2017-08-02T07:12:06.849Z,26528
2017-08-02T07:13:29.711Z,22784
2017-08-02T07:14:52.203Z,24096
2017-08-02T07:16:14.831Z,21664
2017-08-02T07:17:36.690Z,19040
2017-08-02T07:18:59.536Z,17184
2017-08-02T07:20:22.029Z,18080
2017-08-02T07:21:43.920Z,20608
2017-08-02T07:23:05.786Z,21952
2017-08-02T07:24:27.960Z,21760
2017-08-02T07:25:49.497Z,20192
2017-08-02T07:27:12.048Z,23744
2017-08-02T07:28:33.890Z,20288
2017-08-02T07:29:56.033Z,20000
2017-08-02T07:31:18.262Z,19264
2017-08-02T07:32:40.111Z,18560
2017-08-02T07:34:02.007Z,16608
2017-08-02T07:35:24.791Z,14584
2017-08-02T07:36:46.502Z,14532
2017-08-02T07:38:08.673Z,15372
2017-08-02T07:39:30.647Z,14800
2017-08-02T07:40:53.069Z,17216
2017-08-02T07:42:14.610Z,16352
2017-08-02T07:43:36.759Z,15160
2017-08-02T07:44:58.921Z,13360
2017-08-02T07:46:21.392Z,14844
2017-08-02T07:47:43.901Z,17568
2017-08-02T07:49:05.424Z,19328
2017-08-02T07:50:27.610Z,16608
2017-08-02T07:51:50.110Z,15036
2017-08-02T07:53:12.064Z,15032
2017-08-02T07:54:34.550Z,14644
2017-08-02T07:55:56.741Z,15476
2017-08-02T07:57:19.639Z,18048
2017-08-02T07:58:41.918Z,19552
2017-08-02T08:00:04.455Z,19456
2017-08-02T08:01:26.757Z,21088
2017-08-02T08:02:49.667Z,23040
2017-08-02T08:04:11.207Z,20704
2017-08-02T08:05:33.461Z,20928
2017-08-02T08:06:55.339Z,21120
2017-08-02T08:08:18.109Z,20320
2017-08-02T08:09:40.268Z,17856
2017-08-02T08:11:02.450Z,14736
2017-08-02T08:12:24.312Z,14092
2017-08-02T08:13:46.470Z,13060
2017-08-02T08:15:09.002Z,13616
2017-08-02T08:16:31.217Z,12540
2017-08-02T08:17:53.701Z,12128
2017-08-02T08:19:16.202Z,11120
2017-08-02T08:20:38.700Z,11476
2017-08-02T08:22:00.883Z,11716
2017-08-02T08:23:23.120Z,13028
2017-08-02T08:24:45.639Z,14536
2017-08-02T08:26:06.856Z,16608
2017-08-02T08:27:29.424Z,19808
2017-08-02T08:28:51.922Z,20576
2017-08-02T08:30:14.841Z,19904
2017-08-02T08:31:37.051Z,19552
2017-08-02T08:32:58.909Z,18016
2017-08-02T08:34:20.771Z,17856
2017-08-02T08:35:42.624Z,18368
2017-08-02T08:37:05.173Z,17920
2017-08-02T08:38:27.671Z,20128
2017-08-02T08:39:49.943Z,20160
2017-08-02T08:41:12.121Z,20832
2017-08-02T08:42:34.663Z,22976
2017-08-02T08:43:57.159Z,23360
2017-08-02T08:45:19.398Z,21408
2017-08-02T08:46:41.552Z,19872
2017-08-02T08:48:03.100Z,19136
2017-08-02T08:49:25.652Z,18016
2017-08-02T08:50:47.230Z,15820
2017-08-02T08:52:09.336Z,13612
2017-08-02T08:53:30.932Z,10888
2017-08-02T08:54:53.116Z,8852
2017-08-02T08:56:15.280Z,7696
2017-08-02T08:57:38.150Z,7016
2017-08-02T08:59:00.011Z,6592
2017-08-02T09:00:22.381Z,6532
2017-08-02T09:01:44.572Z,7500
2017-08-02T09:03:07.429Z,9720
2017-08-02T09:04:29.302Z,10092
2017-08-02T09:05:51.550Z,10420
2017-08-02T09:07:14.063Z,11944
2017-08-02T09:08:36.877Z,12712
2017-08-02T09:09:58.750Z,12360
2017-08-02T09:11:21.398Z,13224
2017-08-02T09:12:43.680Z,14112
2017-08-02T09:14:06.102Z,14472
2017-08-02T09:15:28.059Z,14384
2017-08-02T09:16:49.929Z,13304
2017-08-02T09:18:11.488Z,12908
2017-08-02T09:19:34.083Z,14612
2017-08-02T09:20:56.281Z,16320
2017-08-02T09:22:18.130Z,17248
2017-08-02T09:23:40.481Z,18784
2017-08-02T09:25:03.428Z,20928
2017-08-02T09:26:25.595Z,23744
2017-08-02T09:27:47.778Z,24448
2017-08-02T09:29:09.658Z,23872
2017-08-02T09:30:32.131Z,23008
2017-08-02T09:31:54.331Z,22432
2017-08-02T09:33:16.810Z,22656
2017-08-02T09:34:38.379Z,23744
2017-08-02T09:36:00.933Z,25632
2017-08-02T09:37:22.810Z,26944
2017-08-02T09:38:45.314Z,27296
2017-08-02T09:40:06.942Z,28416
2017-08-02T09:41:29.319Z,27936
2017-08-02T09:42:51.307Z,27040
2017-08-02T09:44:13.480Z,26240
2017-08-02T09:45:35.652Z,26016
2017-08-02T09:46:57.817Z,25792
2017-08-02T09:48:19.126Z,25792
2017-08-02T09:49:41.627Z,25376
2017-08-02T09:51:03.819Z,26016
2017-08-02T09:52:26.613Z,25344
2017-08-02T09:53:48.790Z,24384
2017-08-02T09:55:11.308Z,22176
2017-08-02T09:56:33.493Z,22048
2017-08-02T09:57:56.334Z,24192
2017-08-02T09:59:18.479Z,26880
2017-08-02T10:00:39.708Z,28448
2017-08-02T10:02:01.368Z,27488
2017-08-02T10:03:24.300Z,23136
2017-08-02T10:04:46.801Z,22432
2017-08-02T10:06:08.671Z,22016
2017-08-02T10:07:30.858Z,20800
2017-08-02T10:08:53.329Z,20352
2017-08-02T10:10:15.835Z,22560
2017-08-02T10:11:37.758Z,23808
2017-08-02T10:13:00.319Z,23968
2017-08-02T10:14:22.103Z,23040
2017-08-02T10:15:44.368Z,22688
2017-08-02T10:17:06.534Z,22112
2017-08-02T10:18:28.721Z,20768
2017-08-02T10:19:51.258Z,19264
2017-08-02T10:21:13.479Z,15956
2017-08-02T10:22:35.663Z,15752
2017-08-02T10:23:57.869Z,14600
2017-08-02T10:25:20.634Z,13464
2017-08-02T10:26:42.789Z,13404
2017-08-02T10:28:04.344Z,12880
2017-08-02T10:29:26.551Z,12372
2017-08-02T10:30:48.547Z,12000
2017-08-02T10:32:11.040Z,12032
2017-08-02T10:33:32.572Z,12576
2017-08-02T10:34:55.063Z,12548
2017-08-02T10:36:17.340Z,12856
2017-08-02T10:37:39.542Z,13384
2017-08-02T10:39:02.041Z,12700
2017-08-02T10:40:24.729Z,17100
2017-08-02T10:41:47.370Z,19008
2017-08-02T10:43:09.545Z,17888
2017-08-02T10:44:30.838Z,18400
2017-08-02T10:45:53.379Z,18016
2017-08-02T10:47:16.028Z,17824
2017-08-02T10:48:37.278Z,14428
2017-08-02T10:49:59.769Z,13444
2017-08-02T10:51:22.294Z,17056
2017-08-02T10:52:44.447Z,16512
2017-08-02T10:54:07.070Z,19360
2017-08-02T10:55:29.268Z,19104
2017-08-02T10:56:51.798Z,15968
2017-08-02T10:58:14.286Z,17696
2017-08-02T10:59:36.359Z,18080
2017-08-02T11:00:58.226Z,15664
2017-08-02T11:02:20.796Z,14156
2017-08-02T11:03:43.411Z,11084
2017-08-02T11:05:05.960Z,12860
2017-08-02T11:06:27.587Z,12448
2017-08-02T11:07:50.185Z,11560
2017-08-02T11:09:12.480Z,10484
2017-08-02T11:10:34.636Z,10464
2017-08-02T11:11:55.848Z,12328
2017-08-02T11:13:17.696Z,16152
2017-08-02T11:14:40.190Z,17312
2017-08-02T11:16:02.709Z,20896
2017-08-02T11:17:24.257Z,22432
2017-08-02T11:18:46.775Z,22816
2017-08-02T11:20:08.877Z,21728
2017-08-02T11:21:31.359Z,18592
2017-08-02T11:22:53.538Z,17184
2017-08-02T11:24:16.172Z,20352
2017-08-02T11:25:38.818Z,19840
2017-08-02T11:27:01.034Z,17760
2017-08-02T11:28:23.199Z,16160
2017-08-02T11:29:45.851Z,14832
2017-08-02T11:31:08.334Z,14532
2017-08-02T11:32:30.624Z,12584
2017-08-02T11:33:52.484Z,11532
2017-08-02T11:35:14.659Z,11188
2017-08-02T11:36:37.278Z,12500
2017-08-02T11:37:59.907Z,13400
2017-08-02T11:39:21.757Z,10728
2017-08-02T11:40:43.739Z,9336
2017-08-02T11:42:05.919Z,11884
2017-08-02T11:43:29.167Z,12664
2017-08-02T11:44:51.438Z,15224
2017-08-02T11:46:12.980Z,20992
2017-08-02T11:47:35.775Z,22400
2017-08-02T11:48:57.962Z,18816
2017-08-02T11:50:20.161Z,16056
2017-08-02T11:51:42.368Z,13704
2017-08-02T11:53:05.220Z,12920
2017-08-02T11:54:27.200Z,14752
2017-08-02T11:55:49.454Z,18752
2017-08-02T11:57:11.408Z,19392
2017-08-02T11:58:34.169Z,18624
2017-08-02T11:59:56.670Z,18880
2017-08-02T12:01:18.864Z,18432
2017-08-02T12:02:41.375Z,19744
2017-08-02T12:04:03.808Z,19072
2017-08-02T12:05:26.306Z,15788
2017-08-02T12:06:48.148Z,15368
2017-08-02T12:08:10.005Z,13676
2017-08-02T12:09:31.948Z,10884
2017-08-02T12:10:53.954Z,8604
2017-08-02T12:12:15.828Z,6548
2017-08-02T12:13:37.673Z,4480
2017-08-02T12:15:00.483Z,3900
2017-08-02T12:16:22.377Z,4360
2017-08-02T12:17:44.865Z,6220
2017-08-02T12:19:07.377Z,6960
2017-08-02T12:20:29.476Z,11060
2017-08-02T12:21:51.757Z,14952
2017-08-02T12:23:13.619Z,8424
2017-08-02T12:24:36.100Z,8008
2017-08-02T12:25:58.947Z,10192
2017-08-02T12:27:20.809Z,12112
2017-08-02T12:28:42.979Z,15096
2017-08-02T12:30:04.850Z,15884
2017-08-02T12:31:27.789Z,15520
2017-08-02T12:32:49.705Z,17376
2017-08-02T12:34:12.296Z,18208
2017-08-02T12:35:34.135Z,19072
2017-08-02T12:36:56.569Z,20096
2017-08-02T12:38:18.890Z,21984
2017-08-02T12:39:41.076Z,19712
2017-08-02T12:41:02.627Z,17280
2017-08-02T12:42:25.109Z,17824
2017-08-02T12:43:46.692Z,19136
2017-08-02T12:45:08.538Z,20640
2017-08-02T12:46:30.517Z,20224
2017-08-02T12:47:53.285Z,20000
2017-08-02T12:49:14.719Z,22656
2017-08-02T12:50:36.901Z,24544
2017-08-02T12:51:59.402Z,25920
2017-08-02T12:53:21.840Z,24512
2017-08-02T12:54:43.801Z,22752
2017-08-02T12:56:05.980Z,22560
2017-08-02T12:57:28.146Z,22080
2017-08-02T12:58:50.635Z,22560
2017-08-02T13:00:12.168Z,22784
2017-08-02T13:01:33.714Z,24000
2017-08-02T13:02:55.574Z,23776
2017-08-02T13:04:18.369Z,22688
2017-08-02T13:05:40.865Z,22272
2017-08-02T13:07:03.058Z,22880
2017-08-02T13:08:25.251Z,22144
2017-08-02T13:09:48.039Z,21280
2017-08-02T13:11:10.319Z,21248
2017-08-02T13:12:32.253Z,22112
2017-08-02T13:13:54.489Z,21568
2017-08-02T13:15:16.892Z,21376
2017-08-02T13:16:39.439Z,20960
2017-08-02T13:18:00.988Z,20640
2017-08-02T13:19:22.531Z,20704
2017-08-02T13:20:45.013Z,19136
2017-08-02T13:22:07.606Z,18688
2017-08-02T13:23:29.800Z,18816
2017-08-02T13:24:52.054Z,19168
2017-08-02T13:26:14.487Z,19584
2017-08-02T13:27:36.696Z,18912
2017-08-02T13:28:58.888Z,18720
2017-08-02T13:30:21.146Z,20768
2017-08-02T13:31:43.331Z,21280
2017-08-02T13:33:05.530Z,20352
2017-08-02T13:34:27.100Z,18784
2017-08-02T13:35:48.947Z,18272
2017-08-02T13:37:11.541Z,19072
2017-08-02T13:38:33.777Z,20064
2017-08-02T13:39:56.278Z,21536
2017-08-02T13:41:18.298Z,22112
2017-08-02T13:42:40.803Z,22176
2017-08-02T13:44:02.759Z,21184
2017-08-02T13:45:25.262Z,20864
2017-08-02T13:46:47.951Z,20928
2017-08-02T13:48:10.448Z,20800
2017-08-02T13:49:32.757Z,20448
2017-08-02T13:50:54.971Z,20640
2017-08-02T13:52:17.518Z,21344
2017-08-02T13:53:39.689Z,21504
2017-08-02T13:55:01.851Z,20192
2017-08-02T13:56:23.092Z,18432
2017-08-02T13:57:45.283Z,17632
2017-08-02T13:59:07.423Z,17248
2017-08-02T14:00:29.618Z,16896
2017-08-02T14:01:51.834Z,16960
2017-08-02T14:03:13.700Z,16672
2017-08-02T14:04:36.516Z,16384
2017-08-02T14:05:58.997Z,16164
2017-08-02T14:07:21.201Z,16480
2017-08-02T14:08:43.380Z,17056
2017-08-02T14:10:05.960Z,17152
2017-08-02T14:11:28.451Z,17056
2017-08-02T14:12:50.017Z,16992
2017-08-02T14:14:12.279Z,17120
2017-08-02T14:15:34.807Z,17344
2017-08-02T14:16:56.752Z,17792
2017-08-02T14:18:19.482Z,18144
2017-08-02T14:19:41.967Z,18048
2017-08-02T14:21:04.135Z,17312
2017-08-02T14:22:26.445Z,17888
2017-08-02T14:23:48.659Z,18144
2017-08-02T14:25:10.860Z,18944
2017-08-02T14:26:33.291Z,19104
2017-08-02T14:27:55.785Z,18720
2017-08-02T14:29:18.281Z,18208
2017-08-02T14:30:40.784Z,17088
2017-08-02T14:32:03.344Z,16384
2017-08-02T14:33:25.260Z,16480
2017-08-02T14:34:47.742Z,16992
2017-08-02T14:36:10.237Z,17408
2017-08-02T14:37:32.830Z,17120
2017-08-02T14:38:55.059Z,16256
2017-08-02T14:40:17.262Z,15860
2017-08-02T14:41:39.478Z,15416
2017-08-02T14:43:01.974Z,13892
2017-08-02T14:44:24.160Z,12636
2017-08-02T14:45:46.651Z,13340
2017-08-02T14:47:08.834Z,14152
2017-08-02T14:48:31.282Z,14032
2017-08-02T14:49:53.872Z,13316
2017-08-02T14:51:16.020Z,11896
2017-08-02T14:52:38.215Z,12016
2017-08-02T14:54:00.711Z,12400
2017-08-02T14:55:23.288Z,12968
2017-08-02T14:56:45.466Z,14384
2017-08-02T14:58:07.368Z,15752
2017-08-02T14:59:29.950Z,16544
2017-08-02T15:00:52.443Z,16800
2017-08-02T15:02:14.789Z,16608
2017-08-02T15:03:36.985Z,16448
2017-08-02T15:04:59.482Z,16128
2017-08-02T15:06:21.973Z,15412
2017-08-02T15:07:43.867Z,15508
2017-08-02T15:09:06.083Z,15092
2017-08-02T15:10:28.590Z,14748
2017-08-02T15:11:50.880Z,14956
2017-08-02T15:13:12.742Z,15572
2017-08-02T15:14:34.960Z,16288
2017-08-02T15:15:56.810Z,16896
2017-08-02T15:17:19.483Z,16544
2017-08-02T15:18:41.681Z,15808
2017-08-02T15:20:03.930Z,16576
2017-08-02T15:21:26.031Z,15648
2017-08-02T15:22:48.523Z,13284
2017-08-02T15:24:10.821Z,12504
2017-08-02T15:25:33.309Z,11256
2017-08-02T15:26:55.739Z,10608
2017-08-02T15:28:18.276Z,11332
2017-08-02T15:29:40.796Z,12068
2017-08-02T15:31:03.419Z,12464
2017-08-02T15:32:25.932Z,12960
2017-08-02T15:33:47.789Z,13296
2017-08-02T15:35:09.769Z,13032
2017-08-02T15:36:32.033Z,12392
2017-08-02T15:37:53.829Z,11836
2017-08-02T15:39:16.185Z,11408
2017-08-02T15:40:38.786Z,11216
2017-08-02T15:42:00.970Z,10932
2017-08-02T15:43:23.502Z,10844
2017-08-02T15:44:45.671Z,11148
2017-08-02T15:46:07.840Z,11644
2017-08-02T15:47:30.395Z,11872
2017-08-02T15:48:52.888Z,11900
2017-08-02T15:50:14.798Z,11752
2017-08-02T15:51:36.967Z,11576
2017-08-02T15:52:59.677Z,11072
2017-08-02T15:54:22.648Z,11172
2017-08-02T15:55:45.141Z,10772
2017-08-02T15:57:07.346Z,10336
2017-08-02T15:58:29.885Z,10188
2017-08-02T15:59:52.503Z,10856
2017-08-02T16:01:15.275Z,10652
2017-08-02T16:02:37.158Z,10480
2017-08-02T16:03:59.673Z,10320
2017-08-02T16:05:22.276Z,9816
2017-08-02T16:06:44.474Z,9476
2017-08-02T16:08:06.651Z,9496
2017-08-02T16:09:29.176Z,9640
2017-08-02T16:10:52.020Z,9936
2017-08-02T16:12:14.518Z,10308
2017-08-02T16:13:37.015Z,10636
2017-08-02T16:14:59.187Z,10880
2017-08-02T16:16:21.886Z,11060
2017-08-02T16:17:44.221Z,11232
2017-08-02T16:19:06.416Z,11424
2017-08-02T16:20:28.586Z,11512
2017-08-02T16:21:51.423Z,11488
2017-08-02T16:23:13.960Z,11412
2017-08-02T16:24:36.507Z,11312
2017-08-02T16:25:58.721Z,11124
2017-08-02T16:27:20.879Z,10832
2017-08-02T16:28:42.881Z,10464
2017-08-02T16:30:05.400Z,10148
2017-08-02T16:31:27.259Z,9916
2017-08-02T16:32:49.428Z,9740
2017-08-02T16:34:11.709Z,9672
2017-08-02T16:35:34.010Z,9712
2017-08-02T16:36:56.524Z,9564
2017-08-02T16:38:18.808Z,9268
2017-08-02T16:39:40.990Z,8920
2017-08-02T16:41:03.311Z,8616
2017-08-02T16:42:25.824Z,8496
2017-08-02T16:43:48.327Z,8484
2017-08-02T16:45:10.272Z,8536
2017-08-02T16:46:32.792Z,8940
2017-08-02T16:47:54.957Z,9116
2017-08-02T16:49:18.111Z,9176
2017-08-02T16:50:40.389Z,8956
2017-08-02T16:52:02.238Z,8572
2017-08-02T16:53:24.743Z,8280
2017-08-02T16:54:47.170Z,8028
2017-08-02T16:56:09.380Z,7804
2017-08-02T16:57:31.554Z,7668
2017-08-02T16:58:54.049Z,7620
2017-08-02T17:00:16.056Z,7524
2017-08-02T17:01:38.569Z,7400
2017-08-02T17:03:01.106Z,7372
2017-08-02T17:04:23.633Z,7376
2017-08-02T17:05:46.558Z,7264
2017-08-02T17:07:08.726Z,7028
2017-08-02T17:08:31.233Z,6884
2017-08-02T17:09:53.750Z,7004
2017-08-02T17:11:15.919Z,7088
2017-08-02T17:12:37.793Z,6868
2017-08-02T17:14:00.009Z,6708
2017-08-02T17:15:22.229Z,6720
2017-08-02T17:16:45.075Z,6704
2017-08-02T17:18:07.281Z,6712
2017-08-02T17:19:29.465Z,6828
2017-08-02T17:20:51.329Z,6832
2017-08-02T17:22:14.074Z,6756
2017-08-02T17:23:36.285Z,6668
2017-08-02T17:24:58.797Z,6428
2017-08-02T17:26:21.396Z,6292
2017-08-02T17:27:43.588Z,6256
2017-08-02T17:29:05.839Z,6236
2017-08-02T17:30:27.757Z,6148
2017-08-02T17:31:49.311Z,6084
2017-08-02T17:33:11.870Z,5848
2017-08-02T17:34:34.471Z,5548
2017-08-02T17:35:56.645Z,5272
2017-08-02T17:37:18.814Z,5076
2017-08-02T17:38:41.242Z,4956
2017-08-02T17:40:03.729Z,4884
2017-08-02T17:41:25.598Z,4752
2017-08-02T17:42:47.460Z,4744
2017-08-02T17:44:09.948Z,4600
2017-08-02T17:45:32.298Z,4400
2017-08-02T17:46:54.489Z,4200
2017-08-02T17:48:16.377Z,4184
2017-08-02T17:49:38.870Z,4176
2017-08-02T17:51:01.124Z,4144
2017-08-02T17:52:23.722Z,4160
2017-08-02T17:53:45.602Z,4140
2017-08-02T17:55:08.467Z,4016
2017-08-02T17:56:30.389Z,3980
2017-08-02T17:57:52.638Z,4056
2017-08-02T17:59:14.567Z,4220
2017-08-02T18:00:36.757Z,4292
2017-08-02T18:01:58.843Z,4192
2017-08-02T18:03:20.401Z,3944
2017-08-02T18:04:42.611Z,3444
2017-08-02T18:06:05.469Z,2864
2017-08-02T18:07:28.036Z,2356
2017-08-02T18:08:50.569Z,1992
2017-08-02T18:10:13.242Z,1792
2017-08-02T18:11:36.177Z,1652
2017-08-02T18:12:57.764Z,1524
2017-08-02T18:14:19.963Z,1372
2017-08-02T18:15:41.853Z,1256